Time;durP1;ratioP1;P1;durP2;ratioP2;P2;SDS_P1;SDS_P2;PMS_P1;PMS_P2;Temp;Humidity;BMP_temperature;BMP_pressure;BME280_temperature;BME280_humidity;BME280_pressure;Samples;Min_cycle;Max_cycle;Signal;HPM_P1;HPM_P2
2023/05/28 00:00:50;;;;;;;25.02;7.50;;;;;;;-144.73;100.00;54309.19;5105189;28;20436;-73
2023/05/28 00:03:17;;;;;;;21.20;6.63;;;;;;;-144.73;100.00;54264.03;5093704;28;20409;-73
2023/05/28 00:05:44;;;;;;;26.13;7.75;;;;;;;-144.73;100.00;54305.06;5091727;28;20039;-73
2023/05/28 00:08:09;;;;;;;34.00;8.30;;;;;;;-144.73;100.00;54296.88;5101832;28;20432;-73
2023/05/28 00:10:34;;;;;;;28.17;8.13;;;;;;;-144.73;100.00;54247.59;5101382;28;20028;-73
2023/05/28 00:13:00;;;;;;;39.03;8.77;;;;;;;-144.73;100.00;54325.59;5109281;28;20015;-74
2023/05/28 00:15:25;;;;;;;31.13;7.82;;;;;;;-144.73;100.00;54264.03;5092311;28;20036;-72
2023/05/28 00:17:53;;;;;;;30.02;9.45;;;;;;;-144.73;100.00;54288.66;5099087;28;20103;-73
2023/05/28 00:20:20;;;;;;;34.63;9.27;;;;;;;-144.73;100.00;54288.66;5091094;28;20048;-73
2023/05/28 00:22:45;;;;;;;33.90;9.23;;;;;;;-144.73;100.00;54342.03;5098919;28;20145;-73
2023/05/28 00:25:12;;;;;;;31.40;8.85;;;;;;;-144.73;100.00;54259.91;5105158;27;20032;-73
2023/05/28 00:27:37;;;;;;;28.10;9.35;;;;;;;-144.73;100.00;54292.75;5094370;28;20035;-74
2023/05/28 00:30:03;;;;;;;30.85;9.30;;;;;;;-144.73;100.00;54292.75;5102302;28;20044;-73
2023/05/28 00:32:28;;;;;;;33.08;8.63;;;;;;;-144.73;100.00;54251.72;5100582;28;20120;-74
2023/05/28 00:34:54;;;;;;;32.45;8.70;;;;;;;-144.73;100.00;54309.19;5097436;28;20024;-74
2023/05/28 00:37:19;;;;;;;35.42;9.40;;;;;;;-144.73;100.00;54268.13;5098085;28;20052;-74
2023/05/28 00:39:44;;;;;;;33.40;8.95;;;;;;;-144.73;100.00;54284.56;5100938;28;20089;-74
2023/05/28 00:42:12;;;;;;;26.45;7.68;;;;;;;-144.73;100.00;54292.75;5104111;28;20028;-74
2023/05/28 00:44:39;;;;;;;34.08;9.90;;;;;;;-144.73;100.00;54280.44;5097427;28;20023;-73
2023/05/28 00:47:05;;;;;;;33.63;9.05;;;;;;;-144.73;100.00;54247.59;5105305;28;20039;-72
2023/05/28 00:49:32;;;;;;;32.30;9.35;;;;;;;-144.73;100.00;54257.88;5100655;28;20047;-73
2023/05/28 00:51:58;;;;;;;26.85;8.65;;;;;;;-144.73;100.00;54261.97;5103503;28;20036;-73
2023/05/28 00:54:24;;;;;;;35.47;9.20;;;;;;;-144.73;100.00;54342.03;5096294;28;20028;-73
2023/05/28 00:56:52;;;;;;;29.98;9.18;;;;;;;-144.73;100.00;54305.06;5096654;28;20028;-73
2023/05/28 00:59:18;;;;;;;26.17;8.05;;;;;;;-144.73;100.00;54276.34;5092067;28;20114;-74
2023/05/28 01:01:43;;;;;;;31.38;9.48;;;;;;;-144.73;100.00;54309.19;5098087;28;20108;-73
2023/05/28 01:04:08;;;;;;;34.20;9.13;;;;;;;-144.73;100.00;54243.50;5098177;28;20106;-73
2023/05/28 01:06:37;;;;;;;30.85;9.23;;;;;;;-144.73;100.00;54284.56;5096397;28;20061;-73
2023/05/28 01:09:04;;;;;;;34.00;9.35;;;;;;;-144.73;100.00;54257.88;5100711;28;20086;-73
2023/05/28 01:11:31;;;;;;;34.08;8.68;;;;;;;-144.73;100.00;54247.59;5091564;28;20031;-72
2023/05/28 01:13:57;;;;;;;36.25;10.20;;;;;;;-144.73;100.00;54313.28;5095983;28;20103;-73
2023/05/28 01:16:23;;;;;;;28.02;8.43;;;;;;;-144.73;100.00;54288.66;5089560;28;20160;-73
2023/05/28 01:18:48;;;;;;;31.02;8.50;;;;;;;-144.73;100.00;54276.34;5088420;28;20028;-73
2023/05/28 01:21:15;;;;;;;26.27;8.43;;;;;;;-144.73;100.00;54288.66;5088400;28;20056;-75
2023/05/28 01:23:45;;;;;;;33.03;8.65;;;;;;;-144.73;100.00;54284.56;5096373;28;20028;-74
2023/05/28 01:26:12;;;;;;;28.90;8.88;;;;;;;-144.73;100.00;54251.72;5096613;28;20031;-73
2023/05/28 01:28:43;;;;;;;25.48;8.75;;;;;;;-144.73;100.00;54276.34;5097493;28;20499;-74
2023/05/28 01:31:13;;;;;;;25.60;8.10;;;;;;;-144.73;100.00;54276.34;5102481;28;20111;-74
2023/05/28 01:33:42;;;;;;;36.78;9.23;;;;;;;-144.73;100.00;54300.97;5101004;28;20482;-75
2023/05/28 01:36:35;;;;;;;27.30;9.05;;;;;;;-144.73;100.00;54305.06;5100470;28;20397;-75
2023/05/28 01:39:02;;;;;;;29.80;9.13;;;;;;;-144.73;100.00;54292.75;5103789;28;20099;-74
2023/05/28 01:41:28;;;;;;;33.60;9.27;;;;;;;-144.73;100.00;54284.56;5098402;28;20035;-74
2023/05/28 01:43:54;;;;;;;31.52;10.23;;;;;;;-144.73;100.00;54276.34;5086538;28;20020;-72
2023/05/28 01:46:21;;;;;;;33.70;10.48;;;;;;;-144.73;100.00;54311.22;5095480;28;20035;-73
2023/05/28 01:48:47;;;;;;;32.60;11.93;;;;;;;-144.73;100.00;54284.56;5100194;28;20030;-73
2023/05/28 01:51:23;;;;;;;39.17;13.07;;;;;;;-144.73;100.00;54249.66;5100799;28;20024;-73
2023/05/28 01:53:49;;;;;;;44.80;15.63;;;;;;;-144.73;100.00;54259.91;5095465;28;20027;-73
2023/05/28 01:56:14;;;;;;;32.42;9.82;;;;;;;-144.73;100.00;54329.72;5088187;28;20020;-73
2023/05/28 01:58:40;;;;;;;28.10;9.15;;;;;;;-144.73;100.00;54313.28;5089323;28;20034;-73
2023/05/28 02:01:17;;;;;;;29.35;8.73;;;;;;;-144.73;100.00;54264.03;5088255;28;20051;-73
2023/05/28 02:03:43;;;;;;;32.17;8.88;;;;;;;-144.73;100.00;54309.19;5096382;28;20042;-73
2023/05/28 02:06:08;;;;;;;29.13;10.68;;;;;;;-144.73;100.00;54284.56;5095094;28;20028;-73
2023/05/28 02:08:33;;;;;;;30.35;11.30;;;;;;;-144.73;100.00;54284.56;5105106;28;20519;-73
2023/05/28 02:10:59;;;;;;;31.42;11.80;;;;;;;-144.73;100.00;54280.44;5102581;28;20078;-73
2023/05/28 02:13:24;;;;;;;28.83;11.75;;;;;;;-144.73;100.00;54264.03;5089801;28;20016;-73
2023/05/28 02:15:49;;;;;;;30.23;12.20;;;;;;;-144.73;100.00;54282.50;5088085;28;20032;-73
2023/05/28 02:18:15;;;;;;;29.85;10.15;;;;;;;-144.73;100.00;54255.81;5089978;28;20016;-73
2023/05/28 02:20:43;;;;;;;28.42;8.45;;;;;;;-144.73;100.00;54300.97;5088563;28;20036;-74
2023/05/28 02:23:09;;;;;;;33.53;9.45;;;;;;;-144.73;100.00;54292.75;5101638;28;20110;-74
2023/05/28 02:25:34;;;;;;;28.58;8.45;;;;;;;-144.73;100.00;54290.72;5097953;28;20067;-73
2023/05/28 02:28:00;;;;;;;28.73;9.57;;;;;;;-144.73;100.00;54321.50;5096694;28;20032;-73
2023/05/28 02:30:25;;;;;;;30.83;9.60;;;;;;;-144.73;100.00;54288.66;5096211;28;20024;-73
2023/05/28 02:32:51;;;;;;;30.85;9.65;;;;;;;-144.73;100.00;54321.50;5100339;28;20058;-73
2023/05/28 02:35:18;;;;;;;26.70;9.75;;;;;;;-144.73;100.00;54266.06;5107371;28;20066;-73
2023/05/28 02:37:43;;;;;;;24.45;8.45;;;;;;;-144.73;100.00;54276.34;5104890;28;20083;-73
2023/05/28 02:40:09;;;;;;;34.70;9.10;;;;;;;-144.73;100.00;54305.06;5088124;28;20036;-73
2023/05/28 02:42:35;;;;;;;31.98;9.85;;;;;;;-144.73;100.00;54300.97;5095497;28;20026;-73
2023/05/28 02:45:00;;;;;;;30.70;9.63;;;;;;;-144.73;100.00;54296.88;5104134;28;20029;-73
2023/05/28 02:47:26;;;;;;;27.27;8.65;;;;;;;-144.73;100.00;54284.56;5088315;28;20028;-72
2023/05/28 02:49:51;;;;;;;26.10;9.07;;;;;;;-144.73;100.00;54280.44;5088189;28;20023;-73
2023/05/28 02:52:16;;;;;;;31.50;9.00;;;;;;;-144.73;100.00;54276.34;5096522;28;20501;-73
2023/05/28 02:54:42;;;;;;;25.30;9.13;;;;;;;-144.73;100.00;54321.50;5084610;28;20058;-73
2023/05/28 02:57:07;;;;;;;23.95;8.52;;;;;;;-144.73;100.00;54284.56;5091042;28;20036;-73
2023/05/28 02:59:32;;;;;;;27.10;8.27;;;;;;;-144.73;100.00;54305.06;5090988;28;20445;-73
2023/05/28 03:01:58;;;;;;;29.90;9.45;;;;;;;-144.73;100.00;54292.75;5112573;27;20032;-73
2023/05/28 03:04:23;;;;;;;32.53;8.93;;;;;;;-144.73;100.00;54282.50;5101486;28;20114;-73
2023/05/28 03:06:49;;;;;;;26.67;9.77;;;;;;;-144.73;100.00;54305.06;5110110;28;20028;-73
2023/05/28 03:09:15;;;;;;;30.13;9.93;;;;;;;-144.73;100.00;54292.75;5102782;28;20019;-73
2023/05/28 03:11:41;;;;;;;19.75;7.78;;;;;;;-144.73;100.00;54305.06;5101286;28;20097;-73
2023/05/28 03:14:06;;;;;;;29.15;9.18;;;;;;;-144.73;100.00;54317.38;5097548;28;20024;-73
2023/05/28 03:16:32;;;;;;;26.20;8.95;;;;;;;-144.73;100.00;54292.75;5103152;28;20040;-73
2023/05/28 03:18:58;;;;;;;21.90;8.13;;;;;;;-144.73;100.00;54333.81;5108251;28;20421;-73
2023/05/28 03:21:23;;;;;;;23.77;8.00;;;;;;;-144.73;100.00;54259.91;5092196;28;20093;-73
2023/05/28 03:23:49;;;;;;;26.52;8.77;;;;;;;-144.73;100.00;54329.72;5107261;28;20118;-73
2023/05/28 03:26:14;;;;;;;24.85;9.40;;;;;;;-144.73;100.00;54290.72;5096886;28;20027;-73
2023/05/28 03:28:39;;;;;;;33.17;9.13;;;;;;;-144.73;100.00;54264.03;5092325;28;20028;-73
2023/05/28 03:31:05;;;;;;;27.05;8.50;;;;;;;-144.73;100.00;54296.88;5099924;28;20031;-73
2023/05/28 03:33:30;;;;;;;35.55;9.73;;;;;;;-144.73;100.00;54259.91;5090442;28;20035;-74
2023/05/28 03:35:55;;;;;;;28.88;8.50;;;;;;;-144.73;100.00;54284.56;5091571;28;20047;-73
2023/05/28 03:38:21;;;;;;;30.63;9.60;;;;;;;-144.73;100.00;54305.06;5091116;28;20516;-73
2023/05/28 03:40:46;;;;;;;26.48;9.50;;;;;;;-144.73;100.00;54309.19;5089935;28;20056;-73
2023/05/28 03:43:11;;;;;;;25.40;8.25;;;;;;;-144.73;100.00;54317.38;5103300;28;20028;-73
2023/05/28 03:45:37;;;;;;;28.17;9.20;;;;;;;-144.73;100.00;54292.75;5097527;28;20047;-73
2023/05/28 03:48:02;;;;;;;29.95;8.48;;;;;;;-144.73;100.00;54313.28;5098422;28;20445;-73
2023/05/28 03:50:28;;;;;;;25.65;8.43;;;;;;;-144.73;100.00;54253.75;5090600;28;20127;-73
2023/05/28 03:52:53;;;;;;;32.53;9.40;;;;;;;-144.73;100.00;54300.97;5085394;28;20046;-73
2023/05/28 03:55:19;;;;;;;32.50;10.70;;;;;;;-144.73;100.00;54292.75;5109888;28;20043;-73
2023/05/28 03:57:44;;;;;;;29.95;9.85;;;;;;;-144.73;100.00;54337.91;5091716;28;20028;-73
2023/05/28 04:00:10;;;;;;;23.90;8.90;;;;;;;-144.73;100.00;54284.56;5098087;28;20036;-74
2023/05/28 04:02:35;;;;;;;26.73;9.32;;;;;;;-144.73;100.00;54325.59;5106551;28;20032;-73
2023/05/28 04:05:01;;;;;;;26.85;8.85;;;;;;;-144.73;100.00;54276.34;5107390;28;20106;-72
2023/05/28 04:07:26;;;;;;;19.10;8.02;;;;;;;-144.73;100.00;54296.88;5109051;28;20379;-72
2023/05/28 04:09:51;;;;;;;28.48;8.38;;;;;;;-144.73;100.00;54309.19;5098517;28;20024;-72
2023/05/28 04:12:17;;;;;;;33.88;9.90;;;;;;;-144.73;100.00;54300.97;5091275;28;20031;-72
2023/05/28 04:14:42;;;;;;;30.92;10.00;;;;;;;-144.73;100.00;54280.44;5089618;28;20128;-72
2023/05/28 04:17:08;;;;;;;24.58;8.90;;;;;;;-144.73;100.00;54259.91;5090601;28;20540;-73
2023/05/28 04:19:34;;;;;;;21.17;8.05;;;;;;;-144.73;100.00;54305.06;5091445;28;20039;-73
2023/05/28 04:22:00;;;;;;;26.23;8.13;;;;;;;-144.73;100.00;54292.75;5095009;28;20023;-73
2023/05/28 04:24:25;;;;;;;23.98;8.10;;;;;;;-144.73;100.00;54321.50;5109063;28;20087;-73
2023/05/28 04:26:51;;;;;;;24.20;8.05;;;;;;;-144.73;100.00;54255.81;5117003;27;20114;-73
2023/05/28 04:29:17;;;;;;;28.38;9.18;;;;;;;-144.73;100.00;54261.97;5111090;28;20016;-73
2023/05/28 04:31:43;;;;;;;28.80;10.02;;;;;;;-144.73;100.00;54288.66;5092782;28;20028;-73
2023/05/28 04:34:09;;;;;;;29.30;8.48;;;;;;;-144.73;100.00;54305.06;5105158;28;20035;-72
2023/05/28 04:36:36;;;;;;;29.90;8.70;;;;;;;-144.73;100.00;54296.88;5089419;28;20106;-73
2023/05/28 04:39:04;;;;;;;27.95;8.38;;;;;;;-144.73;100.00;54247.59;5101971;28;20023;-73
2023/05/28 04:41:30;;;;;;;36.38;9.35;;;;;;;-144.73;100.00;54280.44;5094350;28;20036;-73
2023/05/28 04:43:56;;;;;;;29.48;8.57;;;;;;;-144.73;100.00;54337.91;5091489;28;20478;-73
2023/05/28 04:46:25;;;;;;;25.00;7.85;;;;;;;-144.73;100.00;54286.59;5097264;28;20031;-73
2023/05/28 04:48:51;;;;;;;17.17;7.93;;;;;;;-144.73;100.00;54342.03;5104989;28;20024;-73
2023/05/28 04:51:18;;;;;;;28.23;8.70;;;;;;;-144.73;100.00;54300.97;5089707;28;20078;-73
2023/05/28 04:53:43;;;;;;;22.88;7.55;;;;;;;-144.73;100.00;54354.34;5082195;28;20047;-74
2023/05/28 04:56:10;;;;;;;22.38;8.02;;;;;;;-144.73;100.00;54311.22;5089222;28;20028;-73
2023/05/28 04:58:36;;;;;;;26.23;8.35;;;;;;;-144.73;100.00;54280.44;5089055;28;20024;-73
2023/05/28 05:01:01;;;;;;;28.33;8.63;;;;;;;-144.73;100.00;54331.75;5088888;28;20035;-73
2023/05/28 05:03:27;;;;;;;26.75;7.45;;;;;;;-144.73;100.00;54266.06;5097077;28;20022;-73
2023/05/28 05:05:53;;;;;;;24.65;7.22;;;;;;;-144.73;100.00;54321.50;5091298;28;20044;-73
2023/05/28 05:08:18;;;;;;;22.80;8.25;;;;;;;-144.73;100.00;54311.22;5089585;28;20403;-73
2023/05/28 05:10:43;;;;;;;24.67;7.70;;;;;;;-144.73;100.00;54292.75;5089531;28;20514;-73
2023/05/28 05:13:09;;;;;;;22.55;6.97;;;;;;;-144.73;100.00;54300.97;5089691;28;20070;-73
2023/05/28 05:15:34;;;;;;;33.50;7.70;;;;;;;-144.73;100.00;54290.72;5090091;28;20043;-73
2023/05/28 05:17:59;;;;;;;24.55;6.95;;;;;;;-144.73;100.00;54313.28;5089439;28;20028;-73
2023/05/28 05:20:27;;;;;;;22.88;8.25;;;;;;;-144.73;100.00;54296.88;5088753;28;20115;-73
2023/05/28 05:22:52;;;;;;;34.42;8.32;;;;;;;-144.73;100.00;54300.97;5089761;28;20433;-73
2023/05/28 05:25:17;;;;;;;25.75;7.20;;;;;;;-144.73;100.00;54305.06;5093059;28;20089;-73
2023/05/28 05:27:43;;;;;;;21.75;6.90;;;;;;;-144.73;100.00;54290.72;5088880;28;20031;-73
2023/05/28 05:30:08;;;;;;;24.48;7.78;;;;;;;-144.73;100.00;54284.56;5088850;28;20035;-73
2023/05/28 05:32:34;;;;;;;24.40;7.35;;;;;;;-144.73;100.00;54313.28;5096244;28;20046;-73
2023/05/28 05:34:59;;;;;;;25.23;8.30;;;;;;;-144.73;100.00;54323.53;5096289;28;20016;-73
2023/05/28 05:37:25;;;;;;;20.73;7.90;;;;;;;-144.73;100.00;54337.91;5097679;28;20023;-73
2023/05/28 05:39:50;;;;;;;26.00;7.43;;;;;;;-144.73;100.00;54290.72;5100931;28;20427;-73
2023/05/28 05:42:15;;;;;;;22.98;7.32;;;;;;;-144.73;100.00;54296.88;5097518;28;20173;-73
2023/05/28 05:44:41;;;;;;;24.88;6.97;;;;;;;-144.73;100.00;54309.19;5088490;28;20035;-74
2023/05/28 05:47:06;;;;;;;27.00;7.30;;;;;;;-144.73;100.00;54292.75;5101387;28;20107;-74
2023/05/28 05:49:31;;;;;;;23.40;7.03;;;;;;;-144.73;100.00;54276.34;5103633;28;20023;-74
2023/05/28 05:51:57;;;;;;;27.55;7.47;;;;;;;-144.73;100.00;54280.44;5098324;28;20051;-73
2023/05/28 05:54:22;;;;;;;24.90;6.65;;;;;;;-144.73;100.00;54261.97;5096329;28;20042;-73
2023/05/28 05:56:48;;;;;;;28.75;7.97;;;;;;;-144.73;100.00;54245.56;5089873;28;20051;-74
2023/05/28 05:59:14;;;;;;;31.67;7.53;;;;;;;-144.73;100.00;54280.44;5103026;28;20028;-74
2023/05/28 06:01:39;;;;;;;21.77;7.05;;;;;;;-144.73;100.00;54329.72;5089842;28;20081;-73
2023/05/28 06:04:05;;;;;;;20.88;6.88;;;;;;;-144.73;100.00;54321.50;5089349;28;20077;-73
2023/05/28 06:06:30;;;;;;;34.50;7.32;;;;;;;-144.73;99.68;54307.13;5087946;28;20032;-73
2023/05/28 06:08:55;;;;;;;19.67;6.95;;;;;;;-144.73;100.00;54292.75;5090449;28;20032;-73
2023/05/28 06:11:22;;;;;;;27.58;8.55;;;;;;;-144.73;100.00;54292.75;5096543;28;20034;-74
2023/05/28 06:13:48;;;;;;;22.55;6.53;;;;;;;-144.73;99.82;54319.44;5103497;28;20073;-73
2023/05/28 06:16:13;;;;;;;28.40;7.30;;;;;;;-144.73;98.49;54284.56;5103731;28;20076;-74
2023/05/28 06:18:39;;;;;;;30.98;7.65;;;;;;;-144.73;100.00;54296.88;5093630;28;20021;-74
2023/05/28 06:21:07;;;;;;;24.75;6.57;;;;;;;-144.73;100.00;54305.06;5106907;28;20116;-74
2023/05/28 06:23:33;;;;;;;18.42;7.28;;;;;;;-144.73;100.00;54276.34;5101364;28;20030;-74
2023/05/28 06:25:58;;;;;;;22.75;7.60;;;;;;;-144.73;100.00;54296.88;5094621;28;20402;-74
2023/05/28 06:28:24;;;;;;;27.15;7.47;;;;;;;-144.73;100.00;54305.06;5097578;28;20024;-73
2023/05/28 06:30:49;;;;;;;23.15;7.30;;;;;;;-144.73;100.00;54278.41;5101545;28;20034;-74
2023/05/28 06:33:15;;;;;;;33.45;7.90;;;;;;;-144.73;100.00;54280.44;5092685;28;20023;-74
2023/05/28 06:35:40;;;;;;;29.08;8.20;;;;;;;-144.73;100.00;54346.13;5101174;28;20524;-74
2023/05/28 06:38:06;;;;;;;32.80;8.00;;;;;;;-144.73;100.00;54284.56;5098268;28;20031;-74
2023/05/28 06:40:31;;;;;;;29.42;8.35;;;;;;;-144.73;99.62;54268.13;5104788;28;20039;-75
2023/05/28 06:42:59;;;;;;;27.23;8.02;;;;;;;-144.73;99.68;54342.03;5113844;28;20082;-74
2023/05/28 06:45:24;;;;;;;20.50;7.38;;;;;;;-144.73;98.35;54303.03;5098277;28;20032;-74
2023/05/28 06:47:49;;;;;;;29.63;8.02;;;;;;;-144.73;97.55;54268.13;5100041;28;20069;-75
2023/05/28 06:50:15;;;;;;;29.88;8.00;;;;;;;-144.73;97.03;54313.28;5094776;28;20106;-74
2023/05/28 06:52:40;;;;;;;21.30;6.82;;;;;;;-144.73;95.74;54276.34;5108445;28;20043;-73
2023/05/28 06:55:06;;;;;;;27.77;8.15;;;;;;;-144.73;95.54;54321.50;5098563;28;20032;-74
2023/05/28 06:57:33;;;;;;;27.23;7.30;;;;;;;-144.73;94.33;54280.44;5100823;28;20371;-75
2023/05/28 06:59:58;;;;;;;17.92;5.82;;;;;;;-144.73;95.27;54276.34;5102688;28;20016;-75
2023/05/28 07:02:23;;;;;;;24.23;7.70;;;;;;;-144.73;92.86;54247.59;5112019;28;20023;-74
2023/05/28 07:04:49;;;;;;;23.35;6.75;;;;;;;-144.73;92.34;54255.81;5093824;28;20012;-75
2023/05/28 07:07:15;;;;;;;22.40;6.43;;;;;;;-144.73;91.95;54280.44;5102331;28;20027;-75
2023/05/28 07:09:41;;;;;;;21.05;5.43;;;;;;;-144.73;90.76;54276.34;5103774;28;20031;-75
2023/05/28 07:12:06;;;;;;;23.05;6.90;;;;;;;-144.73;88.45;54247.59;5100325;28;20039;-75
2023/05/28 07:14:32;;;;;;;29.55;7.35;;;;;;;-144.73;90.13;54255.81;5097972;28;20031;-74
2023/05/28 07:16:57;;;;;;;22.80;5.88;;;;;;;-144.73;89.25;54313.28;5104548;27;20424;-74
2023/05/28 07:19:22;;;;;;;22.83;7.78;;;;;;;-144.73;88.24;54300.97;5097636;27;20020;-74
2023/05/28 07:21:48;;;;;;;23.88;6.85;;;;;;;-144.73;87.60;54247.59;5102863;28;20323;-74
2023/05/28 07:24:13;;;;;;;23.58;6.65;;;;;;;-144.73;88.09;54257.88;5094660;28;20030;-74
2023/05/28 07:26:38;;;;;;;24.52;7.32;;;;;;;-144.73;87.75;54255.81;5100905;28;20032;-74
2023/05/28 07:29:04;;;;;;;27.92;7.68;;;;;;;-144.73;88.28;54288.66;5097494;28;20030;-74
2023/05/28 07:31:31;;;;;;;28.77;7.47;;;;;;;-144.73;88.23;54317.38;5100441;28;20032;-74
2023/05/28 07:33:56;;;;;;;27.30;7.75;;;;;;;-144.73;90.37;54268.13;5098526;28;20081;-73
2023/05/28 07:36:22;;;;;;;19.90;6.07;;;;;;;-144.73;91.47;54251.72;5092636;28;20039;-74
2023/05/28 07:38:47;;;;;;;20.70;6.47;;;;;;;-144.73;91.96;54251.72;5094729;28;20062;-75
2023/05/28 07:41:12;;;;;;;32.88;7.85;;;;;;;-144.73;89.39;54342.03;5093416;28;20039;-75
2023/05/28 07:43:38;;;;;;;24.67;6.45;;;;;;;-144.73;89.93;54309.19;5093058;28;20028;-75
2023/05/28 07:46:03;;;;;;;29.67;7.78;;;;;;;-144.73;89.19;54235.28;5102937;28;20176;-74
2023/05/28 07:48:28;;;;;;;24.35;6.40;;;;;;;-144.73;90.38;54216.81;5106837;28;20028;-75
2023/05/28 07:50:54;;;;;;;24.23;7.15;;;;;;;-144.73;89.54;54239.41;5100074;27;20039;-75
2023/05/28 07:53:19;;;;;;;19.48;5.90;;;;;;;-144.73;87.05;54276.34;5102517;28;20091;-74
2023/05/28 07:55:45;;;;;;;19.88;5.85;;;;;;;-144.73;85.68;54259.91;5094740;28;20032;-76
2023/05/28 07:58:12;;;;;;;24.60;5.65;;;;;;;-144.73;83.66;54251.72;5099911;28;20078;-76
2023/05/28 08:00:38;;;;;;;25.67;6.80;;;;;;;-144.73;82.43;54222.97;5089195;28;20031;-75
2023/05/28 08:03:04;;;;;;;21.83;6.22;;;;;;;-144.73;82.13;54202.44;5099571;28;20513;-75
2023/05/28 08:05:29;;;;;;;21.20;6.50;;;;;;;-144.73;80.81;54231.19;5099736;28;20028;-76
2023/05/28 08:07:54;;;;;;;24.58;6.10;;;;;;;-144.73;81.31;54231.19;5100216;28;20016;-75
2023/05/28 08:10:20;;;;;;;21.13;5.50;;;;;;;-144.73;78.91;54276.34;5102324;28;20077;-75
2023/05/28 08:12:45;;;;;;;25.88;6.75;;;;;;;-144.73;76.26;54218.88;5094820;28;20035;-75
2023/05/28 08:15:11;;;;;;;23.35;5.90;;;;;;;-144.73;76.72;54251.72;5103768;28;20036;-75
2023/05/28 08:17:36;;;;;;;23.77;7.35;;;;;;;-144.73;76.09;54247.59;5092818;28;20054;-75
2023/05/28 08:20:02;;;;;;;21.67;6.57;;;;;;;-144.73;76.02;54235.28;5099358;28;20046;-75
2023/05/28 08:22:27;;;;;;;24.75;7.05;;;;;;;-144.73;75.07;54239.41;5091236;28;20092;-75
2023/05/28 08:24:52;;;;;;;17.20;5.70;;;;;;;-144.73;73.59;54227.09;5094145;28;20027;-75
2023/05/28 08:27:18;;;;;;;17.45;5.28;;;;;;;-144.73;73.68;54181.94;5097344;28;20016;-75
2023/05/28 08:29:43;;;;;;;20.48;5.50;;;;;;;-144.73;71.34;54231.19;5090571;28;20027;-75
2023/05/28 08:32:08;;;;;;;15.55;5.43;;;;;;;-144.73;69.20;54218.88;5099372;28;20015;-75
2023/05/28 08:34:36;;;;;;;21.65;5.65;;;;;;;-144.73;70.76;54235.28;5102477;28;20031;-75
2023/05/28 08:37:02;;;;;;;21.42;6.25;;;;;;;-144.73;68.72;54218.88;5099692;28;20039;-75
2023/05/28 08:39:28;;;;;;;17.98;5.40;;;;;;;-144.73;65.79;54218.88;5101913;28;20032;-74
2023/05/28 08:41:54;;;;;;;23.42;4.93;;;;;;;-144.73;65.69;54222.97;5099212;28;20039;-76
2023/05/28 08:44:19;;;;;;;18.95;5.10;;;;;;;-144.73;66.03;54202.44;5100091;28;20015;-75
2023/05/28 08:46:45;;;;;;;13.40;4.22;;;;;;;-144.73;63.31;54225.03;5100189;27;20048;-76
2023/05/28 08:49:11;;;;;;;21.98;4.97;;;;;;;-144.73;62.76;54247.59;5101309;28;20039;-76
2023/05/28 08:51:39;;;;;;;19.45;5.07;;;;;;;-144.73;62.84;54237.34;5097179;27;20033;-76
2023/05/28 08:54:04;;;;;;;19.77;5.25;;;;;;;-144.73;62.13;54218.88;5099703;27;20050;-76
2023/05/28 08:56:30;;;;;;;26.15;6.00;;;;;;;-144.73;62.29;54247.59;5091715;28;20024;-76
2023/05/28 08:58:56;;;;;;;22.20;4.90;;;;;;;-144.73;60.08;54235.28;5107056;28;20462;-75
2023/05/28 09:01:22;;;;;;;18.35;5.72;;;;;;;-144.73;59.47;54239.41;5087704;28;20032;-75
2023/05/28 09:03:48;;;;;;;20.30;4.85;;;;;;;-144.73;56.02;54202.44;5097595;28;20032;-74
2023/05/28 09:06:14;;;;;;;16.75;4.10;;;;;;;-144.73;56.01;54206.56;5091792;28;20066;-75
2023/05/28 09:08:39;;;;;;;23.35;5.00;;;;;;;-144.73;54.93;54208.63;5086025;28;20024;-76
2023/05/28 09:11:13;;;;;;;16.55;4.35;;;;;;;-144.73;54.41;54192.19;5089393;28;20099;-75
2023/05/28 09:13:45;;;;;;;14.77;5.80;;;;;;;-144.73;53.79;54227.09;5081872;28;20027;-74
2023/05/28 09:16:20;;;;;;;23.55;5.32;;;;;;;-144.73;55.33;54257.88;5082751;28;20028;-74
2023/05/28 09:18:48;;;;;;;15.57;5.22;;;;;;;-144.73;57.47;54235.28;5082960;28;20103;-74
2023/05/28 09:21:14;;;;;;;13.10;4.03;;;;;;;-144.73;55.53;54259.91;5078665;28;20058;-74
2023/05/28 09:23:39;;;;;;;15.07;3.95;;;;;;;-144.73;53.24;54222.97;5076498;28;20040;-74
2023/05/28 09:26:09;;;;;;;16.85;4.22;;;;;;;-144.73;51.99;54237.34;5076090;28;20035;-75
2023/05/28 09:28:35;;;;;;;16.02;4.47;;;;;;;-144.73;51.33;54206.56;5081511;28;20402;-75
2023/05/28 09:31:05;;;;;;;25.20;4.68;;;;;;;-144.73;51.73;54235.28;5082257;28;20036;-74
2023/05/28 09:33:32;;;;;;;17.77;4.53;;;;;;;-144.73;50.42;54222.97;5092194;28;20019;-74
2023/05/28 09:36:02;;;;;;;9.65;4.10;;;;;;;-144.73;49.89;54198.34;5086488;28;20032;-75
2023/05/28 09:38:41;;;;;;;12.95;4.45;;;;;;;-144.73;49.69;54214.78;5084605;28;20020;-75
2023/05/28 09:41:23;;;;;;;14.25;4.72;;;;;;;-144.73;49.65;54186.03;5081066;28;20024;-75
2023/05/28 09:44:00;;;;;;;16.98;4.55;;;;;;;-144.73;49.90;54206.56;5082173;28;20024;-75
2023/05/28 09:46:33;;;;;;;19.40;4.32;;;;;;;-144.73;48.50;54218.88;5084039;28;20055;-75
2023/05/28 09:48:59;;;;;;;17.17;5.22;;;;;;;-144.73;48.75;54214.78;5093683;28;20149;-76
2023/05/28 09:51:28;;;;;;;16.27;3.80;;;;;;;-144.73;48.25;54198.34;5088962;28;20024;-75
2023/05/28 09:54:03;;;;;;;13.13;3.95;;;;;;;-144.73;48.77;54225.03;5083762;28;20016;-76
2023/05/28 09:56:33;;;;;;;22.30;5.68;;;;;;;-144.73;47.78;54220.94;5081815;28;20035;-76
2023/05/28 09:59:01;;;;;;;14.55;4.60;;;;;;;-144.73;45.73;54165.50;5097248;28;20039;-75
2023/05/28 10:01:37;;;;;;;20.13;5.50;;;;;;;-144.73;45.71;54202.44;5095335;28;20028;-76
2023/05/28 10:04:10;;;;;;;13.50;5.35;;;;;;;-144.73;45.44;54214.78;5105828;27;20023;-76
2023/05/28 10:06:38;;;;;;;16.63;4.50;;;;;;;-144.73;44.36;54200.41;5089136;28;20028;-76
2023/05/28 10:09:04;;;;;;;15.93;4.50;;;;;;;-144.73;43.14;54218.88;5084641;28;20046;-75
2023/05/28 10:11:36;;;;;;;16.05;5.60;;;;;;;-144.73;43.92;54229.13;5090742;28;20036;-76
2023/05/28 10:14:01;;;;;;;;;;;;;;;-144.73;43.08;54227.09;5085109;28;20077;-76
2023/05/28 10:16:27;;;;;;;13.80;4.35;;;;;;;-144.73;45.80;54220.94;5087490;28;19911;-76
2023/05/28 10:18:53;;;;;;;19.30;4.85;;;;;;;-144.73;46.77;54227.09;5089947;28;20027;-75
2023/05/28 10:21:19;;;;;;;17.42;4.30;;;;;;;-144.73;47.58;54251.72;5090462;28;20035;-74
2023/05/28 10:23:46;;;;;;;15.65;4.45;;;;;;;-144.73;48.33;54239.41;5099951;28;20016;-75
2023/05/28 10:26:14;;;;;;;13.25;4.88;;;;;;;-144.73;48.25;54342.03;5099781;28;20038;-75
2023/05/28 10:28:39;;;;;;;17.17;4.40;;;;;;;-144.73;46.53;54210.66;5099257;28;20042;-75
2023/05/28 10:31:06;;;;;;;18.60;4.88;;;;;;;-144.73;44.47;54245.56;5085921;28;20027;-76
2023/05/28 10:33:37;;;;;;;21.83;5.50;;;;;;;-144.73;43.59;54179.88;5085639;28;20192;-75
2023/05/28 10:36:03;;;;;;;21.08;5.43;;;;;;;-144.73;43.88;54171.66;5086128;28;20064;-75
2023/05/28 10:38:29;;;;;;;22.45;6.25;;;;;;;-144.73;42.04;54190.13;5085492;28;20059;-75
2023/05/28 10:41:02;;;;;;;22.65;5.57;;;;;;;-144.73;41.91;54186.03;5079602;28;20528;-74
2023/05/28 10:43:47;;;;;;;15.30;5.18;;;;;;;-144.73;41.38;54181.94;5079828;28;20054;-75
2023/05/28 10:46:16;;;;;;;17.00;5.07;;;;;;;-144.73;40.23;54247.59;5082822;28;20030;-75
2023/05/28 10:49:02;;;;;;;25.45;6.30;;;;;;;-144.73;41.26;54202.44;5085899;28;20040;-75
2023/05/28 10:52:02;;;;;;;16.85;5.30;;;;;;;-144.73;42.08;54210.66;5075758;28;20032;-75
2023/05/28 10:54:34;;;;;;;18.27;4.85;;;;;;;-144.73;44.36;54261.97;5084003;28;20027;-74
2023/05/28 10:57:05;;;;;;;24.58;5.10;;;;;;;-144.73;44.11;54200.41;5097001;27;20494;-75
2023/05/28 10:59:38;;;;;;;16.45;4.47;;;;;;;-144.73;44.56;54204.50;5085391;28;20031;-74
2023/05/28 11:02:05;;;;;;;20.85;5.30;;;;;;;-144.73;44.38;54198.34;5088208;28;20613;-76